createdAt,value
2019-01-18T00:01:23.139Z,3.2
2019-01-18T00:06:28.591Z,2.2
2019-01-18T00:11:33.958Z,1.8
2019-01-18T00:16:38.943Z,3.9
2019-01-18T00:21:44.054Z,2.2
2019-01-18T00:26:49.058Z,3.2
2019-01-18T00:31:52.742Z,2.9
2019-01-18T00:36:58.636Z,2.4
2019-01-18T00:42:04.303Z,2
2019-01-18T00:47:10.318Z,2.8
2019-01-18T00:52:16.655Z,1.4
2019-01-18T00:57:22.736Z,1.6
2019-01-18T01:02:28.637Z,1.6
2019-01-18T01:07:33.894Z,2.3
2019-01-18T01:12:39.383Z,2.3
2019-01-18T01:17:45.094Z,1.5
2019-01-18T01:22:50.227Z,2
2019-01-18T01:27:56.073Z,1.5
2019-01-18T01:33:01.531Z,1.3
2019-01-18T01:38:07.211Z,1.8
2019-01-18T01:43:12.480Z,2.1
2019-01-18T01:48:18.319Z,1.5
2019-01-18T01:53:24.767Z,2.4
2019-01-18T01:58:29.753Z,1.8
2019-01-18T02:03:35.684Z,1.4
2019-01-18T02:08:41.900Z,1.4
2019-01-18T02:13:46.428Z,1.6
2019-01-18T02:18:51.927Z,1.1
2019-01-18T02:23:57.364Z,1.5
2019-01-18T02:29:02.986Z,1.7
2019-01-18T02:34:08.715Z,1.1
2019-01-18T02:39:13.817Z,1.5
2019-01-18T02:44:19.574Z,1
2019-01-18T02:49:24.664Z,1.3
2019-01-18T02:54:30.962Z,1
2019-01-18T02:59:36.939Z,2
2019-01-18T03:04:43.438Z,1.5
2019-01-18T03:09:49.118Z,1.2
2019-01-18T03:14:54.425Z,1
2019-01-18T03:20:00.284Z,1
2019-01-18T03:25:05.392Z,1.2
2019-01-18T03:30:18.423Z,1.4
2019-01-18T03:35:16.195Z,1
2019-01-18T03:40:22.102Z,1.8
2019-01-18T03:45:28.240Z,1.5
2019-01-18T03:50:28.217Z,1.1
2019-01-18T03:55:33.363Z,1.1
2019-01-18T04:00:37.209Z,1
2019-01-18T04:05:42.458Z,1
2019-01-18T04:10:48.236Z,1.4
2019-01-18T04:15:53.559Z,1.2
2019-01-18T04:20:58.444Z,1.4
2019-01-18T04:26:04.008Z,1.3
2019-01-18T04:31:09.478Z,1.7
2019-01-18T04:36:14.976Z,1.8
2019-01-18T04:41:20.468Z,0.9
2019-01-18T04:46:24.884Z,2.5
2019-01-18T04:51:30.041Z,1.6
2019-01-18T04:56:35.408Z,2
2019-01-18T05:01:40.458Z,1.3
2019-01-18T05:06:46.204Z,1.5
2019-01-18T05:11:52.091Z,5.1
2019-01-18T05:16:57.247Z,3.5
2019-01-18T05:22:03.016Z,4.4
2019-01-18T05:27:08.349Z,5.7
2019-01-18T05:32:13.952Z,4.3
2019-01-18T05:37:18.482Z,4.4
2019-01-18T05:42:24.447Z,4.4
2019-01-18T05:47:30.416Z,3.1
2019-01-18T05:52:36.097Z,4.5
2019-01-18T05:57:42.321Z,4.3
2019-01-18T06:02:47.213Z,6.7
2019-01-18T06:07:52.373Z,2.9
2019-01-18T06:12:58.533Z,2.7
2019-01-18T06:18:04.720Z,5.6
2019-01-18T06:23:10.070Z,3.8
2019-01-18T06:28:15.297Z,3.5
2019-01-18T06:33:21.295Z,2.4
2019-01-18T06:38:26.962Z,5.1
2019-01-18T06:43:32.846Z,3
2019-01-18T06:48:38.171Z,5.4
2019-01-18T06:53:43.679Z,3.6
2019-01-18T06:58:49.500Z,11.5
2019-01-18T07:03:54.544Z,6.6
2019-01-18T07:08:58.362Z,4
2019-01-18T07:14:03.928Z,7.6
2019-01-18T07:19:09.232Z,10.1
2019-01-18T07:24:14.761Z,4.6
2019-01-18T07:29:20.864Z,6.2
2019-01-18T07:34:26.056Z,4.8
2019-01-18T07:39:31.966Z,6.3
2019-01-18T07:44:38.036Z,8.4
2019-01-18T07:49:43.987Z,8.3
2019-01-18T07:54:49.149Z,6.1
2019-01-18T07:59:54.200Z,8.3
2019-01-18T08:04:59.770Z,11.1
2019-01-18T08:10:05.965Z,7.9
2019-01-18T08:15:12.085Z,7.3
2019-01-18T08:20:17.231Z,4.8
2019-01-18T08:25:22.251Z,9
2019-01-18T08:30:28.122Z,10.2
2019-01-18T08:35:33.783Z,8.9
2019-01-18T08:40:38.464Z,9.5
2019-01-18T08:45:43.501Z,7.9
2019-01-18T08:50:49.065Z,9.3
2019-01-18T08:55:54.735Z,5.4
2019-01-18T09:00:59.886Z,5.3
2019-01-18T09:06:05.209Z,5.6
2019-01-18T09:11:11.096Z,6.5
2019-01-18T09:16:16.266Z,6
2019-01-18T09:21:21.427Z,5.6
2019-01-18T09:26:27.174Z,3.6
2019-01-18T09:31:32.805Z,4.1
2019-01-18T09:36:38.392Z,4.3
2019-01-18T09:41:44.183Z,2.8
2019-01-18T09:46:49.534Z,9.4
2019-01-18T09:51:55.397Z,9.1
2019-01-18T09:57:00.941Z,7.6
2019-01-18T10:02:06.141Z,10.9
2019-01-18T10:07:12.128Z,11.7
2019-01-18T10:12:18.377Z,9
2019-01-18T10:17:23.507Z,8
2019-01-18T10:22:29.160Z,15.4
2019-01-18T10:27:34.561Z,11
2019-01-18T10:32:39.516Z,9.5
2019-01-18T10:37:44.440Z,10.2
2019-01-18T10:42:49.660Z,9.2
2019-01-18T10:47:54.937Z,5.7
2019-01-18T10:53:00.963Z,8.1
2019-01-18T10:58:05.475Z,4.5
2019-01-18T11:03:11.739Z,5
2019-01-18T11:08:17.466Z,3.1
2019-01-18T11:13:20.601Z,7.7
2019-01-18T11:18:25.623Z,4.9
2019-01-18T11:23:31.467Z,6.1
2019-01-18T11:28:37.372Z,4.4
2019-01-18T11:33:42.636Z,4.3
2019-01-18T11:38:48.782Z,3.6
2019-01-18T11:43:53.950Z,5.1
2019-01-18T11:48:58.998Z,3.8
2019-01-18T11:54:03.867Z,4
2019-01-18T11:59:09.069Z,4
2019-01-18T12:04:15.066Z,3.7
2019-01-18T12:09:20.147Z,8.1
2019-01-18T12:14:25.562Z,12.3
2019-01-18T12:19:31.293Z,15
2019-01-18T12:24:36.655Z,10.6
2019-01-18T12:29:42.518Z,9.4
2019-01-18T12:34:47.977Z,9.4
2019-01-18T12:39:53.559Z,7.3
2019-01-18T12:44:59.486Z,6.6
2019-01-18T12:50:07.232Z,8.4
2019-01-18T12:55:13.354Z,9.1
2019-01-18T13:00:18.803Z,7.8
2019-01-18T13:05:25.457Z,4.8
2019-01-18T13:10:30.809Z,5.3
2019-01-18T13:15:37.608Z,5.2
2019-01-18T13:20:43.473Z,5.8
2019-01-18T13:25:49.186Z,5.2
2019-01-18T13:30:54.303Z,6.4
2019-01-18T13:36:00.251Z,14.1
2019-01-18T13:41:06.001Z,6.4
2019-01-18T13:46:11.491Z,7
2019-01-18T13:51:15.119Z,4.2
2019-01-18T13:56:20.267Z,3.4
2019-01-18T14:01:26.250Z,4.5
2019-01-18T14:06:32.117Z,4
2019-01-18T14:11:37.291Z,6.4
2019-01-18T14:16:43.193Z,3.9
2019-01-18T14:21:48.942Z,4.6
2019-01-18T14:26:54.664Z,6
2019-01-18T14:31:59.863Z,6.9
2019-01-18T14:37:04.844Z,4.1
2019-01-18T14:42:05.236Z,4.9
2019-01-18T14:47:09.535Z,3.5
2019-01-18T14:52:15.378Z,2.5
2019-01-18T14:57:23.106Z,4.5
2019-01-18T15:02:28.481Z,4.3
2019-01-18T15:07:33.717Z,4.2
2019-01-18T15:12:38.682Z,4.9
2019-01-18T15:17:43.713Z,10.5
2019-01-18T15:22:48.888Z,6.5
2019-01-18T15:27:54.835Z,6.9
2019-01-18T15:33:00.668Z,4
2019-01-18T15:38:02.892Z,4.4
2019-01-18T15:43:08.173Z,5.5
2019-01-18T15:48:13.415Z,8.9
2019-01-18T15:53:18.465Z,6.6
2019-01-18T15:58:23.823Z,6.7
2019-01-18T16:03:28.866Z,13.5
2019-01-18T16:08:34.849Z,9.6
2019-01-18T16:13:40.768Z,13.4
2019-01-18T16:18:46.003Z,8.6
2019-01-18T16:23:51.360Z,5.9
2019-01-18T16:28:56.571Z,7
2019-01-18T16:34:01.622Z,4.5
2019-01-18T16:39:07.201Z,5.8
2019-01-18T16:44:12.401Z,6.9
2019-01-18T16:49:18.482Z,4.1
2019-01-18T16:54:24.172Z,6.9
2019-01-18T16:59:31.100Z,5.4
2019-01-18T17:04:37.273Z,9.2
2019-01-18T17:09:43.014Z,12.7
2019-01-18T17:14:48.848Z,10.3
2019-01-18T17:19:54.382Z,17.8
2019-01-18T17:24:59.714Z,19.3
2019-01-18T17:30:05.797Z,18.9
2019-01-18T17:35:15.354Z,66.9
2019-01-18T17:40:23.527Z,61.3
2019-01-18T17:45:29.624Z,58.2
2019-01-18T17:50:35.840Z,50.8
2019-01-18T17:55:41.953Z,54.5
2019-01-18T18:00:48.888Z,49.4
2019-01-18T18:05:55.056Z,49.1
2019-01-18T18:11:02.441Z,55.7
2019-01-18T18:16:10.145Z,46.3
2019-01-18T18:21:17.087Z,19
2019-01-18T18:26:24.051Z,14.6
2019-01-18T18:31:30.129Z,14.4
2019-01-18T18:36:30.874Z,12.6
2019-01-18T18:41:31.978Z,10.5
2019-01-18T18:46:38.320Z,10.3
2019-01-18T18:51:45.552Z,8.6
2019-01-18T18:56:52.020Z,7.3
2019-01-18T19:01:57.818Z,15.1
2019-01-18T19:07:04.402Z,13.2
2019-01-18T19:12:11.311Z,9.6
2019-01-18T19:17:18.001Z,10.3
2019-01-18T19:22:24.450Z,10.9
2019-01-18T19:27:30.649Z,12.4
2019-01-18T19:32:37.444Z,10.7
2019-01-18T19:37:43.749Z,9.3
2019-01-18T19:42:50.323Z,9.6
2019-01-18T19:47:56.716Z,9.9
2019-01-18T19:53:04.986Z,8.5
2019-01-18T19:58:11.079Z,11.1
2019-01-18T20:03:17.288Z,7.9
2019-01-18T20:08:21.699Z,7.8
2019-01-18T20:13:27.700Z,9.9
2019-01-18T20:18:32.449Z,8.9
2019-01-18T20:23:38.931Z,10.3
2019-01-18T20:28:45.498Z,10.2
2019-01-18T20:33:51.603Z,8.7
2019-01-18T20:38:58.096Z,10.3
2019-01-18T20:44:05.018Z,7
2019-01-18T20:49:11.281Z,6.3
2019-01-18T20:54:18.038Z,6.8
2019-01-18T20:59:24.330Z,7.3
2019-01-18T21:04:33.157Z,6.9
2019-01-18T21:09:39.123Z,7.3
2019-01-18T21:14:44.882Z,7.7
2019-01-18T21:19:50.186Z,5.8
2019-01-18T21:24:56.012Z,6.1
2019-01-18T21:30:02.001Z,7.1
2019-01-18T21:47:09.319Z,6.6
2019-01-18T21:52:15.283Z,6.8
2019-01-18T21:57:20.515Z,4.7
2019-01-18T22:02:26.280Z,4.9
2019-01-18T22:07:31.218Z,5.9
2019-01-18T22:12:39.366Z,5.5
2019-01-18T22:17:45.470Z,5.9
2019-01-18T22:22:51.339Z,7
2019-01-18T22:27:56.641Z,5.3
2019-01-18T22:33:02.677Z,6.6
2019-01-18T22:38:08.276Z,10.5
2019-01-18T22:43:13.397Z,10.2
2019-01-18T22:48:19.095Z,9.7
2019-01-18T22:53:24.932Z,7.9
2019-01-18T22:58:32.490Z,6.6
2019-01-18T23:03:37.661Z,7.1
2019-01-18T23:08:42.541Z,10.1
2019-01-18T23:13:48.121Z,8.7
2019-01-18T23:18:53.472Z,8.3
2019-01-18T23:23:59.173Z,9.6
2019-01-18T23:29:03.243Z,8.7
2019-01-18T23:34:08.623Z,8.5
2019-01-18T23:39:14.289Z,6
2019-01-18T23:44:19.808Z,7.2
2019-01-18T23:49:25.267Z,5.7
2019-01-18T23:54:30.837Z,4.7
2019-01-18T23:59:38.936Z,5.8
